Time;durP1;ratioP1;P1;durP2;ratioP2;P2;SDS_P1;SDS_P2;PMS_P1;PMS_P2;Temp;Humidity;BMP_temperature;BMP_pressure;BME280_temperature;BME280_humidity;BME280_pressure;Samples;Min_cycle;Max_cycle;Signal;HPM_P1;HPM_P2
2022/04/26 03:37:47;;;;;;;25.58;13.85;;;;;;;20.32;42.52;101935.59;5074512;28;20035;-75
2022/04/26 03:40:13;;;;;;;24.50;14.23;;;;;;;20.37;42.49;101932.59;5073744;28;20025;-90
2022/04/26 03:42:40;;;;;;;23.27;15.77;;;;;;;20.33;42.45;101928.91;5073687;28;20032;-75
2022/04/26 03:45:06;;;;;;;21.58;14.38;;;;;;;20.35;42.50;101934.91;5073791;28;20575;-90
2022/04/26 03:47:31;;;;;;;24.92;15.27;;;;;;;20.33;42.31;101937.22;5073847;28;20079;-75
2022/04/26 03:49:57;;;;;;;21.42;14.80;;;;;;;20.26;42.29;101930.66;5073578;28;20048;-75
2022/04/26 03:52:23;;;;;;;26.05;14.15;;;;;;;20.31;42.23;101933.97;5073785;28;20032;-89
2022/04/26 03:54:48;;;;;;;21.35;13.80;;;;;;;20.28;42.41;101929.13;5073690;28;20079;-75
2022/04/26 03:57:14;;;;;;;22.50;13.85;;;;;;;20.29;42.20;101930.75;5073347;28;20036;-75
2022/04/26 03:59:39;;;;;;;25.25;13.90;;;;;;;20.27;42.29;101930.31;5073379;28;20029;-74
2022/04/26 04:02:05;;;;;;;21.65;12.77;;;;;;;20.24;42.26;101925.44;5072694;28;20025;-76
2022/04/26 04:04:30;;;;;;;20.90;12.93;;;;;;;20.26;42.12;101919.56;5072684;28;20123;-76
2022/04/26 04:06:56;;;;;;;25.08;13.98;;;;;;;20.03;42.62;101924.81;5072773;28;20086;-76
2022/04/26 04:09:22;;;;;;;20.98;13.15;;;;;;;20.19;42.21;101920.16;5072954;28;20534;-76
2022/04/26 04:11:47;;;;;;;18.95;12.32;;;;;;;20.16;42.14;101926.38;5072774;28;20029;-76
2022/04/26 04:14:14;;;;;;;24.15;13.15;;;;;;;20.09;42.12;101918.63;5073030;28;20029;-76
2022/04/26 04:16:40;;;;;;;21.92;13.38;;;;;;;20.05;42.12;101923.28;5072785;28;20036;-75
2022/04/26 04:19:18;;;;;;;17.88;11.35;;;;;;;19.97;41.99;101923.41;5072773;28;20028;-76
2022/04/26 04:21:45;;;;;;;20.00;13.02;;;;;;;19.87;42.13;101924.66;5072758;28;20039;-76
2022/04/26 04:24:17;;;;;;;18.48;12.07;;;;;;;19.87;41.86;101924.66;5072609;28;20104;-87
2022/04/26 04:26:44;;;;;;;18.58;11.88;;;;;;;19.80;41.96;101925.28;5072939;28;20437;-76
2022/04/26 04:29:09;;;;;;;16.15;11.90;;;;;;;19.68;42.08;101919.72;5072643;28;20070;-75
2022/04/26 04:31:36;;;;;;;17.88;11.95;;;;;;;19.67;42.08;101923.66;5072309;28;20028;-75
2022/04/26 04:34:02;;;;;;;16.77;12.23;;;;;;;19.68;41.87;101917.75;5072705;28;20081;-75
2022/04/26 04:36:28;;;;;;;18.83;13.27;;;;;;;19.61;41.86;101925.03;5072575;28;20429;-75
2022/04/26 04:38:55;;;;;;;20.58;11.85;;;;;;;19.62;41.80;101926.66;5072743;28;20391;-75
2022/04/26 04:41:21;;;;;;;15.43;11.55;;;;;;;19.57;41.83;101924.09;5072662;28;20453;-76
2022/04/26 04:43:46;;;;;;;16.60;11.32;;;;;;;19.52;41.76;101921.53;5072405;28;20158;-75
2022/04/26 04:46:12;;;;;;;15.75;12.40;;;;;;;19.47;41.74;101927.28;5072315;28;20029;-75
2022/04/26 04:48:37;;;;;;;21.25;12.20;;;;;;;19.47;41.66;101930.06;5072184;28;20047;-75
2022/04/26 04:51:03;;;;;;;14.55;11.23;;;;;;;19.63;41.16;101929.06;5072332;28;20109;-75
2022/04/26 04:53:29;;;;;;;20.25;13.07;;;;;;;19.50;41.16;101930.19;5072553;28;20024;-75
2022/04/26 04:55:54;;;;;;;20.65;12.07;;;;;;;19.43;41.27;101937.47;5072448;28;20033;-75
2022/04/26 04:58:20;;;;;;;22.42;12.35;;;;;;;19.38;41.36;101939.28;5072308;28;20031;-76
2022/04/26 05:00:45;;;;;;;22.40;12.45;;;;;;;19.09;42.05;101922.84;5072184;28;20044;-75
2022/04/26 05:03:11;;;;;;;22.80;12.45;;;;;;;19.04;42.21;101934.97;5070791;28;20025;-76
2022/04/26 05:05:37;;;;;;;22.90;13.57;;;;;;;19.03;42.32;101941.63;5072168;28;20028;-75
2022/04/26 05:08:03;;;;;;;18.50;13.10;;;;;;;19.18;41.93;101939.34;5072294;28;20031;-81
2022/04/26 05:10:33;;;;;;;20.98;13.90;;;;;;;19.16;41.82;101945.25;5071098;28;20066;-75
2022/04/26 05:12:59;;;;;;;26.33;13.88;;;;;;;18.97;42.28;101945.78;5072253;28;20583;-75
2022/04/26 05:15:25;;;;;;;22.40;13.45;;;;;;;19.05;42.36;101949.63;5072356;28;20048;-76
2022/04/26 05:17:52;;;;;;;28.58;15.18;;;;;;;18.97;42.40;101951.31;5072075;28;20024;-76
2022/04/26 05:20:17;;;;;;;23.52;13.93;;;;;;;18.97;42.61;101958.81;5072161;28;20029;-75
2022/04/26 05:25:27;;;;;;;24.02;12.77;;;;;;;18.98;42.19;101974.28;5072396;28;20040;-75
2022/04/26 05:27:53;;;;;;;24.10;12.77;;;;;;;18.94;42.26;101974.13;5072198;28;20033;-76
2022/04/26 05:30:18;;;;;;;17.48;12.75;;;;;;;19.12;41.65;101972.84;5071882;28;20192;-75
2022/04/26 05:32:44;;;;;;;20.08;13.88;;;;;;;19.01;42.06;101979.13;5072157;28;20109;-75
2022/04/26 05:35:11;;;;;;;17.67;10.63;;;;;;;18.97;42.11;101986.53;5073470;28;20025;-75
2022/04/26 05:37:36;;;;;;;17.23;11.18;;;;;;;18.97;41.87;101989.28;5075743;28;20066;-75
2022/04/26 05:40:03;;;;;;;20.35;11.85;;;;;;;18.87;41.75;101995.22;5075706;28;20025;-76
2022/04/26 05:42:29;;;;;;;20.70;12.82;;;;;;;18.85;41.58;102001.91;5075729;28;20498;-75
2022/04/26 05:44:56;;;;;;;19.02;12.10;;;;;;;18.95;41.39;102002.63;5075670;28;20036;-84
2022/04/26 05:47:22;;;;;;;20.08;11.80;;;;;;;18.91;41.47;102004.50;5075281;28;20028;-75
2022/04/26 05:49:48;;;;;;;27.60;14.80;;;;;;;18.92;41.52;102014.41;5075437;28;20415;-75
2022/04/26 05:52:13;;;;;;;19.23;12.43;;;;;;;18.94;41.79;102003.78;5075415;28;20107;-86
2022/04/26 05:54:39;;;;;;;16.60;13.80;;;;;;;19.08;41.44;102012.63;5075646;28;20025;-75
2022/04/26 05:57:05;;;;;;;21.58;12.88;;;;;;;19.05;41.68;102016.09;5075431;28;20532;-89
2022/04/26 05:59:32;;;;;;;23.75;14.27;;;;;;;19.11;41.85;102014.72;5075441;28;20047;-75
2022/04/26 06:01:58;;;;;;;24.27;15.85;;;;;;;19.27;41.94;102017.66;5075146;28;20094;-76
2022/04/26 06:04:25;;;;;;;23.17;15.45;;;;;;;19.36;42.11;102016.44;5075182;28;20032;-75
2022/04/26 06:06:51;;;;;;;28.23;15.45;;;;;;;19.50;42.27;102007.00;5075060;28;20032;-76
2022/04/26 06:09:16;;;;;;;24.48;14.40;;;;;;;19.64;42.43;102015.81;5090843;28;20028;-76
2022/04/26 06:11:42;;;;;;;21.20;14.10;;;;;;;19.82;42.16;102011.72;5075131;28;20074;-88
2022/04/26 06:14:08;;;;;;;18.98;13.00;;;;;;;20.03;42.11;102022.72;5075072;28;20063;-75
2022/04/26 06:16:33;;;;;;;20.50;13.02;;;;;;;20.18;42.16;102016.47;5075099;28;20033;-76
2022/04/26 06:18:59;;;;;;;20.00;13.50;;;;;;;20.27;42.21;102021.09;5074971;28;20520;-75
2022/04/26 06:21:25;;;;;;;19.95;13.18;;;;;;;20.30;42.36;102023.97;5075369;28;20025;-76
2022/04/26 06:23:51;;;;;;;18.10;12.23;;;;;;;20.39;42.48;102030.19;5075026;28;20448;-75
2022/04/26 06:26:16;;;;;;;23.80;13.80;;;;;;;20.17;43.35;102027.88;5074711;28;20040;-90
2022/04/26 06:28:42;;;;;;;20.15;13.93;;;;;;;20.26;43.30;102028.59;5074832;28;20110;-75
2022/04/26 06:31:08;;;;;;;19.73;12.40;;;;;;;20.34;43.37;102033.22;5074902;28;20078;-75
2022/04/26 06:33:34;;;;;;;22.17;13.05;;;;;;;20.36;43.23;102030.91;5074796;28;20032;-75
2022/04/26 06:36:00;;;;;;;20.42;11.93;;;;;;;20.39;43.16;102030.19;5073436;28;20036;-75
2022/04/26 06:38:26;;;;;;;17.95;12.50;;;;;;;20.31;43.40;102027.53;5074758;28;20044;-74
2022/04/26 06:40:52;;;;;;;20.65;13.27;;;;;;;20.38;43.48;102028.56;5074720;28;20035;-76
2022/04/26 06:43:18;;;;;;;18.70;11.52;;;;;;;20.40;43.28;102034.59;5074600;28;20687;-75
2022/04/26 06:45:46;;;;;;;24.05;12.63;;;;;;;20.54;42.96;102028.69;5074158;28;20060;-75
2022/04/26 06:48:13;;;;;;;20.30;10.60;;;;;;;20.55;42.94;102033.09;5074033;28;20044;-75
2022/04/26 06:50:39;;;;;;;17.08;11.68;;;;;;;20.54;42.86;102022.34;5074474;28;20035;-75
2022/04/26 06:53:06;;;;;;;16.75;11.68;;;;;;;20.67;42.83;102029.50;5074422;28;20099;-75
2022/04/26 06:55:32;;;;;;;18.75;11.80;;;;;;;20.84;42.56;102040.31;5074385;28;20086;-76
2022/04/26 06:57:58;;;;;;;20.38;12.68;;;;;;;20.94;42.26;102045.41;5074284;28;20586;-75
2022/04/26 07:00:24;;;;;;;23.27;11.85;;;;;;;20.93;42.04;102041.00;5074206;28;20028;-76
2022/04/26 07:02:49;;;;;;;18.10;12.15;;;;;;;21.03;42.13;102048.84;5074119;28;20058;-76
2022/04/26 07:05:15;;;;;;;15.00;11.27;;;;;;;21.24;41.78;102048.66;5074099;28;20108;-76
2022/04/26 07:07:41;;;;;;;21.08;11.73;;;;;;;21.19;41.91;102048.09;5074202;28;20074;-75
2022/04/26 07:10:08;;;;;;;17.70;12.00;;;;;;;21.16;42.02;102054.31;5074223;28;20035;-75
2022/04/26 07:12:34;;;;;;;15.38;11.95;;;;;;;21.14;42.03;102053.88;5073907;28;20032;-76
2022/04/26 07:15:00;;;;;;;20.38;12.52;;;;;;;21.31;41.61;102051.66;5074073;28;20032;-75
2022/04/26 07:17:25;;;;;;;20.55;12.57;;;;;;;21.30;41.71;102057.53;5073669;28;20070;-89
2022/04/26 07:19:51;;;;;;;17.88;11.57;;;;;;;21.25;41.93;102057.78;5073332;28;20051;-80
2022/04/26 07:22:17;;;;;;;20.20;12.95;;;;;;;21.39;41.64;102061.00;5071003;28;20020;-96
2022/04/26 07:24:43;;;;;;;22.20;13.10;;;;;;;21.47;41.40;102067.56;5061195;28;20025;-75
2022/04/26 07:27:13;;;;;;;17.95;13.18;;;;;;;21.43;41.56;102067.47;5050804;28;20025;-74
2022/04/26 07:29:41;;;;;;;16.08;11.40;;;;;;;21.51;41.23;102076.81;5070243;28;20038;-87
2022/04/26 07:32:09;;;;;;;20.60;11.73;;;;;;;21.56;41.34;102082.94;5071521;28;20025;-75
2022/04/26 07:34:35;;;;;;;16.48;11.32;;;;;;;21.72;40.89;102079.34;5071412;28;20052;-75
2022/04/26 07:37:03;;;;;;;13.55;11.00;;;;;;;21.77;40.77;102077.13;5072991;28;20127;-76
2022/04/26 07:39:33;;;;;;;21.85;11.85;;;;;;;22.02;40.26;102086.13;5071609;28;20017;-76
2022/04/26 07:41:59;;;;;;;15.20;12.60;;;;;;;21.93;40.86;102088.28;5071900;28;20136;-76
2022/04/26 07:44:25;;;;;;;19.42;13.48;;;;;;;22.10;40.54;102085.16;5071777;28;20031;-76
2022/04/26 07:46:52;;;;;;;18.48;12.45;;;;;;;22.21;40.24;102082.63;5072980;28;20024;-92
2022/04/26 07:49:23;;;;;;;15.98;13.27;;;;;;;22.29;40.09;102095.59;5073678;28;20076;-76
2022/04/26 07:51:49;;;;;;;24.58;12.05;;;;;;;22.25;40.08;102091.09;5073036;28;20032;-76
2022/04/26 07:54:16;;;;;;;15.68;12.35;;;;;;;22.22;40.39;102102.94;5070430;28;20547;-73
2022/04/26 07:56:42;;;;;;;24.80;14.35;;;;;;;22.21;40.52;102107.69;5071893;28;20020;-75
2022/04/26 07:59:08;;;;;;;19.02;13.93;;;;;;;22.46;40.21;102113.09;5064184;28;20060;-89
2022/04/26 08:01:35;;;;;;;19.23;14.52;;;;;;;22.32;40.12;102116.31;5053321;28;20049;-76
2022/04/26 08:04:00;;;;;;;18.55;15.07;;;;;;;22.20;40.17;102127.53;5064868;28;20032;-75
2022/04/26 08:06:26;;;;;;;19.50;15.88;;;;;;;22.05;40.16;102124.34;5072819;28;20035;-75
2022/04/26 08:08:54;;;;;;;30.35;17.48;;;;;;;22.10;40.20;102128.88;5073095;28;20096;-79
2022/04/26 08:11:20;;;;;;;25.77;16.75;;;;;;;22.27;39.73;102122.97;5072185;28;20036;-80
2022/04/26 08:13:46;;;;;;;21.00;16.50;;;;;;;22.11;40.06;102131.31;5072461;28;20036;-76
2022/04/26 08:16:12;;;;;;;27.40;17.60;;;;;;;22.14;40.01;102132.56;5073116;28;20036;-75
2022/04/26 08:18:37;;;;;;;22.52;16.13;;;;;;;22.12;40.13;102132.91;5073042;28;20056;-75
2022/04/26 08:21:07;;;;;;;25.23;17.50;;;;;;;22.04;40.13;102142.22;5072863;28;20677;-77
2022/04/26 08:23:34;;;;;;;22.70;16.80;;;;;;;22.17;39.63;102131.06;5072035;28;20082;-76
2022/04/26 08:28:45;;;;;;;26.67;16.98;;;;;;;22.24;39.90;102134.81;5072718;28;20086;-76
2022/04/26 08:31:11;;;;;;;25.73;17.98;;;;;;;22.26;40.02;102138.06;5066956;28;20013;-89
2022/04/26 08:33:37;;;;;;;27.80;18.67;;;;;;;22.54;39.30;102134.38;5053757;28;20527;-76
2022/04/26 08:36:03;;;;;;;25.98;16.88;;;;;;;22.74;39.25;102133.22;5053309;28;20129;-77
2022/04/26 08:38:29;;;;;;;24.30;17.67;;;;;;;22.51;39.09;102138.66;5067564;28;20107;-86
2022/04/26 08:40:55;;;;;;;24.83;16.83;;;;;;;22.58;39.19;102140.81;5072917;28;20043;-76
2022/04/26 08:43:21;;;;;;;25.85;17.17;;;;;;;22.77;38.65;102143.66;5072533;28;20028;-89
2022/04/26 08:45:47;;;;;;;27.00;17.13;;;;;;;22.67;38.66;102145.03;5071918;28;20029;-76
2022/04/26 08:51:03;;;;;;;22.65;16.83;;;;;;;22.31;39.33;102150.91;5073241;28;20043;-76
2022/04/26 08:53:32;;;;;;;23.55;17.10;;;;;;;22.42;39.14;102151.97;5072532;28;20433;-76
2022/04/26 08:56:01;;;;;;;30.02;18.80;;;;;;;22.66;38.69;102156.53;5052426;28;20041;-75
2022/04/26 08:58:32;;;;;;;21.00;18.15;;;;;;;22.85;38.10;102162.19;5070540;28;20399;-75
2022/04/26 09:01:06;;;;;;;27.52;17.25;;;;;;;22.97;38.01;102166.84;5072384;28;20517;-76
2022/04/26 09:03:33;;;;;;;26.42;17.45;;;;;;;22.98;37.83;102171.25;5072522;28;20051;-76
2022/04/26 09:06:07;;;;;;;31.77;18.20;;;;;;;22.49;38.68;102174.44;5071016;28;20552;-76
2022/04/26 09:08:34;;;;;;;25.42;18.10;;;;;;;22.05;39.26;102182.81;5072734;28;20033;-80
2022/04/26 09:11:00;;;;;;;27.30;17.63;;;;;;;22.28;39.14;102177.47;5075721;28;20024;-88
2022/04/26 09:13:26;;;;;;;28.15;19.02;;;;;;;22.60;38.58;102181.09;5076382;28;20020;-89
2022/04/26 09:15:57;;;;;;;27.25;18.38;;;;;;;22.85;37.92;102180.88;5076771;28;20028;-89
2022/04/26 09:18:30;;;;;;;25.10;18.63;;;;;;;22.69;38.17;102173.34;5076582;28;20097;-90
2022/04/26 09:20:57;;;;;;;22.65;18.38;;;;;;;22.71;38.34;102179.34;5068032;28;20036;-75
2022/04/26 09:23:29;;;;;;;28.02;18.15;;;;;;;22.67;38.32;102183.22;5055432;28;20029;-75
2022/04/26 09:26:15;;;;;;;24.08;17.77;;;;;;;22.89;38.02;102181.78;5055255;28;20021;-77
2022/04/26 09:28:49;;;;;;;21.63;17.05;;;;;;;23.18;37.41;102184.03;5053940;28;20033;-76
2022/04/26 09:31:25;;;;;;;23.27;16.30;;;;;;;23.01;37.28;102186.44;5054867;28;20471;-76
2022/04/26 09:33:53;;;;;;;23.70;17.08;;;;;;;22.87;37.85;102189.69;5054346;28;20036;-89
2022/04/26 09:36:28;;;;;;;25.17;18.10;;;;;;;22.51;38.27;102197.16;5055235;28;20025;-76
2022/04/26 09:38:56;;;;;;;31.42;18.70;;;;;;;22.40;38.48;102196.88;5055303;28;20107;-75
2022/04/26 09:41:24;;;;;;;24.50;18.70;;;;;;;22.51;38.21;102204.69;5055661;28;20032;-75
2022/04/26 09:44:03;;;;;;;27.48;19.02;;;;;;;22.48;38.06;102211.00;5055799;28;20059;-75
2022/04/26 09:46:41;;;;;;;30.37;19.23;;;;;;;22.55;38.16;102213.97;5053691;28;20029;-76
2022/04/26 09:49:09;;;;;;;26.42;19.90;;;;;;;22.41;38.25;102214.41;5053688;28;20045;-76
2022/04/26 09:51:36;;;;;;;28.80;18.45;;;;;;;22.55;38.05;102220.34;5053933;28;20025;-82
2022/04/26 09:54:03;;;;;;;33.55;19.98;;;;;;;22.44;37.89;102222.03;5054296;28;20078;-75
2022/04/26 09:56:30;;;;;;;23.15;17.67;;;;;;;22.57;37.60;102214.41;5053713;28;20021;-76
2022/04/26 09:58:57;;;;;;;24.13;20.02;;;;;;;22.79;37.56;102222.13;5054349;28;20379;-76
2022/04/26 10:01:45;;;;;;;28.92;18.23;;;;;;;22.53;37.94;102217.13;5055188;28;20163;-83
2022/04/26 10:04:20;;;;;;;25.67;18.98;;;;;;;22.52;38.11;102217.47;5055513;28;20021;-75
2022/04/26 10:06:49;;;;;;;27.63;19.67;;;;;;;22.70;37.86;102218.72;5055309;28;20056;-76
2022/04/26 10:09:16;;;;;;;28.63;19.95;;;;;;;22.61;38.03;102221.69;5055726;28;20061;-76
2022/04/26 10:11:41;;;;;;;28.27;21.15;;;;;;;22.57;38.21;102220.78;5055760;28;20426;-75
2022/04/26 10:14:08;;;;;;;26.77;21.85;;;;;;;22.43;38.54;102223.19;5054156;28;20104;-76
2022/04/26 10:16:34;;;;;;;31.20;22.67;;;;;;;22.52;38.52;102229.44;5055405;28;20036;-75
2022/04/26 10:19:09;;;;;;;26.27;20.45;;;;;;;22.48;38.48;102227.72;5055208;28;20036;-76
2022/04/26 10:21:40;;;;;;;33.60;22.75;;;;;;;22.53;38.73;102230.25;5054901;28;20029;-76
2022/04/26 10:24:19;;;;;;;29.08;21.65;;;;;;;22.45;38.80;102234.00;5055313;28;20049;-76
2022/04/26 10:26:45;;;;;;;29.20;20.95;;;;;;;22.62;38.57;102234.47;5053838;28;20033;-87
2022/04/26 10:29:14;;;;;;;31.95;23.08;;;;;;;22.69;38.03;102239.41;5054976;28;20021;-84
2022/04/26 10:31:42;;;;;;;31.85;23.27;;;;;;;22.71;38.23;102246.22;5055330;28;20029;-82
2022/04/26 10:34:27;;;;;;;30.77;22.17;;;;;;;22.79;38.20;102250.00;5054902;28;20032;-75
2022/04/26 10:36:56;;;;;;;68.25;26.25;;;;;;;22.67;38.02;102250.91;5053930;28;20033;-75
2022/04/26 10:39:27;;;;;;;31.20;22.35;;;;;;;22.94;37.79;102251.19;5054774;28;20495;-87
2022/04/26 10:41:54;;;;;;;28.98;21.52;;;;;;;22.65;38.41;102247.66;5054921;28;20124;-76
2022/04/26 10:44:22;;;;;;;32.67;22.50;;;;;;;22.78;38.10;102250.38;5054991;28;20025;-85
2022/04/26 10:47:01;;;;;;;32.10;23.35;;;;;;;22.68;38.05;102257.28;5054763;28;20032;-75
2022/04/26 10:49:32;;;;;;;30.20;22.63;;;;;;;22.74;37.93;102250.25;5054546;28;20045;-75
2022/04/26 10:52:23;;;;;;;30.13;21.27;;;;;;;22.45;38.53;102261.88;5054618;28;20025;-75
2022/04/26 10:54:55;;;;;;;29.83;20.13;;;;;;;22.64;38.24;102257.19;5054340;28;20404;-75
2022/04/26 10:57:34;;;;;;;32.53;22.50;;;;;;;22.69;38.12;102256.94;5054607;28;20491;-75
2022/04/26 11:00:08;;;;;;;31.65;22.05;;;;;;;22.82;38.13;102260.44;5054612;28;20025;-75
2022/04/26 11:02:36;;;;;;;28.45;20.23;;;;;;;23.09;37.58;102253.16;5054539;28;20064;-75
2022/04/26 11:05:08;;;;;;;27.75;20.45;;;;;;;23.24;37.68;102257.88;5054637;28;20066;-75
2022/04/26 11:07:35;;;;;;;25.50;18.83;;;;;;;23.25;37.66;102256.72;5052930;28;20083;-76
2022/04/26 11:10:04;;;;;;;31.00;21.10;;;;;;;23.27;37.25;102256.34;5054345;28;20052;-75
2022/04/26 11:12:33;;;;;;;25.30;20.07;;;;;;;23.09;37.46;102253.16;5054411;28;20029;-88
2022/04/26 11:15:02;;;;;;;34.22;21.33;;;;;;;23.34;37.03;102264.06;5054074;28;20036;-89
2022/04/26 11:17:29;;;;;;;31.20;21.55;;;;;;;23.35;36.86;102260.09;5053915;28;20040;-75
2022/04/26 11:19:58;;;;;;;27.33;19.98;;;;;;;23.13;36.75;102262.41;5054132;28;20544;-86
2022/04/26 11:22:25;;;;;;;30.08;22.50;;;;;;;23.32;36.91;102266.41;5053997;28;20025;-75
2022/04/26 11:30:36;;;;;;;35.50;22.45;;;;;;;23.10;37.08;102274.28;5054264;28;20127;-75
2022/04/26 11:33:03;;;;;;;31.40;21.10;;;;;;;23.49;36.60;102271.56;5053145;28;20411;-75
2022/04/26 11:35:30;;;;;;;27.70;21.70;;;;;;;23.27;36.81;102275.84;5054048;28;20052;-87
2022/04/26 11:37:58;;;;;;;29.85;20.83;;;;;;;23.70;36.29;102274.88;5053890;28;20025;-75
2022/04/26 11:40:28;;;;;;;39.53;22.95;;;;;;;23.45;36.68;102277.09;5053783;28;20029;-75
2022/04/26 11:42:58;;;;;;;30.75;20.98;;;;;;;23.49;36.51;102279.94;5054005;28;20532;-75
2022/04/26 11:45:29;;;;;;;35.88;25.42;;;;;;;23.71;36.06;102273.69;5053876;28;20028;-75
2022/04/26 11:47:56;;;;;;;41.65;22.30;;;;;;;23.63;36.08;102283.09;5053387;28;20511;-75
2022/04/26 11:50:23;;;;;;;32.47;23.15;;;;;;;23.54;36.16;102290.84;5053939;28;20387;-75
2022/04/26 11:52:52;;;;;;;33.78;24.45;;;;;;;23.35;36.42;102290.78;5053410;28;20035;-74
2022/04/26 11:55:19;;;;;;;41.10;26.10;;;;;;;23.36;36.60;102300.78;5053284;28;20032;-75
2022/04/26 11:57:48;;;;;;;35.20;23.92;;;;;;;23.42;36.07;102302.09;5053431;28;20325;-75
2022/04/26 12:00:16;;;;;;;31.38;22.23;;;;;;;23.63;36.08;102301.81;5053331;28;20117;-74
2022/04/26 12:02:43;;;;;;;26.95;22.63;;;;;;;23.39;35.95;102314.81;5053032;28;20049;-74
2022/04/26 12:05:10;;;;;;;29.98;21.58;;;;;;;23.38;35.78;102304.81;5053208;28;20037;-75
2022/04/26 12:07:36;;;;;;;38.92;24.38;;;;;;;23.42;35.87;102304.88;5052923;28;20488;-87
2022/04/26 12:10:02;;;;;;;29.67;22.50;;;;;;;23.48;35.28;102300.66;5053142;28;20488;-74
2022/04/26 12:12:29;;;;;;;26.20;22.13;;;;;;;23.47;35.39;102301.81;5053098;28;20032;-87
2022/04/26 12:14:55;;;;;;;29.80;22.35;;;;;;;23.62;35.20;102303.78;5051730;28;20108;-75
2022/04/26 12:17:29;;;;;;;35.35;20.73;;;;;;;23.65;34.82;102300.25;5053144;28;20442;-74
2022/04/26 12:19:55;;;;;;;29.33;21.30;;;;;;;23.49;35.10;102299.47;5053327;28;20071;-74
2022/04/26 12:22:26;;;;;;;24.23;20.73;;;;;;;23.44;35.36;102305.34;5053475;28;20036;-74
2022/04/26 12:24:52;;;;;;;25.05;20.73;;;;;;;23.46;35.24;102301.03;5051844;28;20407;-77
2022/04/26 12:27:22;;;;;;;26.95;20.65;;;;;;;23.49;35.16;102310.63;5053024;28;20052;-75
2022/04/26 12:29:50;;;;;;;27.85;20.60;;;;;;;23.26;35.12;102308.50;5053155;28;20033;-74
2022/04/26 12:32:23;;;;;;;24.58;19.45;;;;;;;23.36;35.20;102311.94;5053100;28;20033;-75
2022/04/26 12:34:54;;;;;;;27.27;19.27;;;;;;;23.52;34.93;102321.88;5052727;28;20060;-75
2022/04/26 12:37:21;;;;;;;33.90;21.20;;;;;;;23.69;35.07;102303.94;5052851;28;20024;-75
2022/04/26 12:39:58;;;;;;;27.88;19.80;;;;;;;23.90;34.46;102308.41;5052890;28;20104;-74
2022/04/26 12:42:26;;;;;;;22.60;18.08;;;;;;;24.05;34.23;102313.91;5051537;28;20032;-76
2022/04/26 12:44:54;;;;;;;25.83;19.27;;;;;;;23.86;34.67;102310.28;5052193;28;20061;-75
2022/04/26 12:52:52;;;;;;;26.15;18.58;;;;;;;23.77;34.80;102313.28;5071204;28;20039;-91
2022/04/26 12:55:40;;;;;;;28.75;18.63;;;;;;;24.02;34.42;102316.59;5073286;28;20103;-75
2022/04/26 12:58:07;;;;;;;30.95;19.30;;;;;;;24.16;34.38;102318.88;5073275;28;20033;-90
2022/04/26 13:00:36;;;;;;;28.23;18.35;;;;;;;24.25;34.38;102319.47;5072934;28;20391;-90
2022/04/26 13:03:04;;;;;;;19.90;15.30;;;;;;;23.96;34.58;102323.69;5088619;28;20024;-89
2022/04/26 13:05:51;;;;;;;25.98;16.92;;;;;;;24.01;34.31;102324.16;5072580;28;20025;-88
2022/04/26 13:08:19;;;;;;;23.35;15.02;;;;;;;24.21;34.50;102319.41;5072338;28;20017;-87
2022/04/26 13:10:47;;;;;;;39.72;17.77;;;;;;;24.08;34.29;102327.13;5071533;28;20036;-78
2022/04/26 13:13:14;;;;;;;24.88;16.25;;;;;;;24.02;34.41;102325.78;5071431;28;20036;-79
2022/04/26 13:15:44;;;;;;;21.92;15.23;;;;;;;23.95;34.77;102327.63;5071355;28;20025;-78
2022/04/26 13:18:12;;;;;;;25.38;16.08;;;;;;;23.68;34.59;102335.03;5071519;28;20029;-86
2022/04/26 13:20:38;;;;;;;24.13;14.77;;;;;;;23.69;34.94;102326.28;5071119;28;20478;-78
2022/04/26 13:23:04;;;;;;;39.33;15.75;;;;;;;23.83;34.51;102323.00;5069440;28;20039;-84
2022/04/26 13:25:30;;;;;;;35.75;16.38;;;;;;;23.98;34.32;102327.72;5063434;28;20106;-83
2022/04/26 13:27:56;;;;;;;20.98;14.38;;;;;;;24.12;34.19;102316.03;5054714;28;20606;-87
2022/04/26 13:30:23;;;;;;;22.98;14.63;;;;;;;24.12;33.89;102318.03;5071745;28;20082;-78
2022/04/26 13:32:49;;;;;;;17.98;14.02;;;;;;;24.22;33.67;102315.44;5071616;28;20043;-78
2022/04/26 13:35:15;;;;;;;23.00;15.63;;;;;;;24.00;34.08;102318.97;5071950;28;20024;-78
2022/04/26 13:37:41;;;;;;;18.05;14.30;;;;;;;23.97;33.96;102322.50;5071803;28;20037;-79
2022/04/26 13:40:07;;;;;;;19.77;13.85;;;;;;;23.87;34.04;102309.09;5071949;28;20028;-78
2022/04/26 13:42:35;;;;;;;26.90;14.20;;;;;;;23.72;34.12;102311.59;5071536;28;20056;-78
2022/04/26 13:45:01;;;;;;;18.40;14.02;;;;;;;23.78;34.17;102310.13;5071925;28;20028;-78
2022/04/26 13:47:26;;;;;;;22.80;14.73;;;;;;;24.03;34.09;102312.63;5071478;28;20372;-79
2022/04/26 13:49:52;;;;;;;25.40;14.68;;;;;;;23.89;33.96;102313.16;5071582;28;20048;-79
2022/04/26 13:52:22;;;;;;;18.58;13.15;;;;;;;23.77;33.67;102311.31;5059419;28;20060;-79
2022/04/26 13:54:49;;;;;;;18.23;13.95;;;;;;;23.75;34.10;102312.84;5071658;28;20115;-78
2022/04/26 13:57:15;;;;;;;19.20;13.77;;;;;;;23.70;33.68;102313.94;5074750;28;20074;-83
2022/04/26 13:59:42;;;;;;;17.67;13.07;;;;;;;23.71;33.44;102311.97;5075474;28;20479;-78
2022/04/26 14:02:08;;;;;;;24.40;12.00;;;;;;;24.00;33.64;102313.38;5075361;28;20020;-86
2022/04/26 14:04:34;;;;;;;17.02;12.27;;;;;;;23.83;34.02;102314.63;5072084;28;20099;-78
2022/04/26 14:07:00;;;;;;;14.05;11.30;;;;;;;23.90;33.79;102319.56;5076039;28;20048;-87
2022/04/26 14:09:25;;;;;;;20.50;11.50;;;;;;;23.77;33.50;102316.88;5075662;28;20379;-79
2022/04/26 14:11:54;;;;;;;16.05;11.15;;;;;;;23.82;33.18;102317.78;5074892;28;20231;-79
2022/04/26 14:22:32;;;;;;;15.45;10.40;;;;;;;23.44;33.80;102314.53;5075199;28;20398;-80
2022/04/26 14:25:08;;;;;;;14.55;10.05;;;;;;;23.28;34.15;102312.94;5074010;28;20107;-78
2022/04/26 14:27:35;;;;;;;12.98;9.45;;;;;;;23.28;33.89;102310.97;5073663;28;20033;-78
2022/04/26 14:30:01;;;;;;;20.42;9.38;;;;;;;23.37;33.77;102314.38;5075080;28;20035;-80
2022/04/26 14:32:27;;;;;;;14.63;8.73;;;;;;;23.29;34.01;102307.00;5073302;28;20056;-78
2022/04/26 14:34:53;;;;;;;10.30;9.18;;;;;;;23.50;33.51;102301.94;5073210;28;20032;-88
2022/04/26 14:37:19;;;;;;;16.17;7.68;;;;;;;23.69;33.19;102303.16;5073219;28;20077;-77
2022/04/26 14:39:45;;;;;;;15.25;8.18;;;;;;;23.78;33.33;102292.56;5073089;28;20052;-78
2022/04/26 14:42:11;;;;;;;12.32;7.90;;;;;;;23.89;33.12;102301.19;5072708;28;20078;-78
2022/04/26 14:44:37;;;;;;;16.20;8.25;;;;;;;24.33;32.75;102293.31;5072586;28;20032;-78
2022/04/26 14:47:03;;;;;;;13.75;8.20;;;;;;;24.18;32.42;102291.38;5072767;28;20097;-78
2022/04/26 14:49:32;;;;;;;11.45;7.78;;;;;;;23.97;32.33;102303.75;5074186;28;20053;-78
2022/04/26 14:51:58;;;;;;;16.10;9.60;;;;;;;23.80;32.40;102298.59;5074496;28;20037;-78
2022/04/26 14:54:23;;;;;;;14.27;8.55;;;;;;;23.79;32.97;102306.16;5074203;28;20196;-78
2022/04/26 14:56:50;;;;;;;14.45;7.88;;;;;;;23.78;33.30;102303.75;5073882;28;20024;-86
2022/04/26 14:59:17;;;;;;;15.82;7.88;;;;;;;23.56;33.23;102305.22;5074181;28;20502;-79
2022/04/26 15:01:49;;;;;;;10.95;7.78;;;;;;;23.75;32.88;102308.09;5074443;28;20036;-78
2022/04/26 15:04:15;;;;;;;17.23;8.45;;;;;;;23.85;32.54;102303.91;5071178;28;20136;-77
2022/04/26 15:06:41;;;;;;;8.55;7.47;;;;;;;23.98;32.17;102304.56;5073068;28;20032;-79
2022/04/26 15:16:37;;;;;;;9.52;8.10;;;;;;;23.78;32.46;102312.13;5072363;28;20090;-85
2022/04/26 15:17:20;;;;;;;13.23;8.32;;;;;;;24.04;33.01;102311.47;5071531;28;20054;-80
2022/04/26 15:19:48;;;;;;;9.25;7.93;;;;;;;23.95;33.07;102319.25;5073214;28;20145;-78
2022/04/26 15:22:17;;;;;;;10.88;8.45;;;;;;;23.63;32.78;102318.56;5074825;28;20035;-79